createdAt,value
2018-04-17T00:03:06.393Z,19.14
2018-04-17T00:08:57.224Z,16.69
2018-04-17T00:14:48.027Z,22.38
2018-04-17T00:20:38.855Z,22.24
2018-04-17T00:26:29.738Z,14.23
2018-04-17T00:32:20.624Z,21.17
2018-04-17T00:38:11.330Z,19.89
2018-04-17T00:44:02.226Z,14.72
2018-04-17T00:49:52.952Z,18.7
2018-04-17T00:55:43.797Z,20.41
2018-04-17T01:01:34.598Z,16.32
2018-04-17T01:07:25.412Z,22.62
2018-04-17T01:13:16.276Z,19.88
2018-04-17T01:19:07.057Z,18.88
2018-04-17T01:24:57.877Z,13.78
2018-04-17T01:30:48.690Z,15.39
2018-04-17T01:36:39.545Z,16.44
2018-04-17T01:42:30.313Z,13.8
2018-04-17T01:48:21.200Z,20.8
2018-04-17T01:54:11.964Z,18.04
2018-04-17T02:00:03.410Z,23.41
2018-04-17T02:05:53.611Z,17.99
2018-04-17T02:11:44.363Z,16.42
2018-04-17T02:17:35.226Z,20.85
2018-04-17T02:23:26.041Z,28.69
2018-04-17T02:29:16.877Z,13.6
2018-04-17T02:35:07.640Z,18.21
2018-04-17T02:40:58.441Z,12.97
2018-04-17T02:46:49.237Z,18.8
2018-04-17T02:52:40.088Z,26.41
2018-04-17T02:58:30.907Z,20.89
2018-04-17T03:04:21.709Z,22.28
2018-04-17T03:10:12.506Z,22.82
2018-04-17T03:16:03.342Z,23.75
2018-04-17T03:21:54.170Z,26.62
2018-04-17T03:27:44.969Z,22.14
2018-04-17T03:33:35.761Z,17.39
2018-04-17T03:39:26.641Z,16.39
2018-04-17T03:45:17.339Z,27.29
2018-04-17T03:51:08.168Z,23.86
2018-04-17T03:56:58.982Z,24.39
2018-04-17T04:02:49.744Z,20
2018-04-17T04:08:40.625Z,20.76
2018-04-17T04:14:31.367Z,21.87
2018-04-17T04:20:22.200Z,23.61
2018-04-17T04:26:12.995Z,21.74
2018-04-17T04:32:03.821Z,21.22
2018-04-17T04:37:54.659Z,23.47
2018-04-17T04:43:45.431Z,27.64
2018-04-17T04:49:36.202Z,26.75
2018-04-17T04:55:27.010Z,27.83
2018-04-17T05:01:17.837Z,19.59
2018-04-17T05:07:08.654Z,23.96
2018-04-17T05:12:59.445Z,24.19
2018-04-17T05:18:50.270Z,25.66
2018-04-17T05:24:41.051Z,29.57
2018-04-17T05:30:31.900Z,23.04
2018-04-17T05:36:22.714Z,25.44
2018-04-17T05:42:13.493Z,28.8
2018-04-17T05:48:04.278Z,22.62
2018-04-17T05:53:55.166Z,24.65
2018-04-17T05:59:45.978Z,30.96
2018-04-17T06:05:36.762Z,31.65
2018-04-17T06:11:27.520Z,35.5
2018-04-17T06:17:18.408Z,29.05
2018-04-17T06:23:09.184Z,34.28
2018-04-17T06:29:00.055Z,29.3
2018-04-17T06:34:50.802Z,35.36
2018-04-17T06:40:41.598Z,41.41
2018-04-17T06:46:32.502Z,44.58
2018-04-17T06:52:23.276Z,43.23
2018-04-17T06:58:14.093Z,54.01
2018-04-17T07:04:04.970Z,46.7
2018-04-17T07:09:55.735Z,40.19
2018-04-17T07:15:46.582Z,48.76
2018-04-17T07:21:37.550Z,31.53
2018-04-17T07:27:28.218Z,42.15
2018-04-17T07:33:19.028Z,36.21
2018-04-17T07:39:09.858Z,39.28
2018-04-17T07:45:00.664Z,36.73
2018-04-17T07:50:51.516Z,39.09
2018-04-17T07:56:42.297Z,40.71
2018-04-17T08:02:33.181Z,53.55
2018-04-17T08:08:23.983Z,56.84
2018-04-17T08:14:14.768Z,49.06
2018-04-17T08:20:05.641Z,53.06
2018-04-17T08:25:56.514Z,58.05
2018-04-17T08:31:47.335Z,52.83
2018-04-17T08:37:38.176Z,47.27
2018-04-17T08:43:28.974Z,51.21
2018-04-17T08:49:19.804Z,43.12
2018-04-17T08:55:10.713Z,34.86
2018-04-17T09:01:01.569Z,32.94
2018-04-17T09:06:52.349Z,32.87
2018-04-17T09:12:43.187Z,34.99
2018-04-17T09:18:34.049Z,29.19
2018-04-17T09:24:24.888Z,26.45
2018-04-17T09:30:15.765Z,34.18
2018-04-17T09:36:06.628Z,23.86
2018-04-17T09:41:57.498Z,35.26
2018-04-17T09:47:48.350Z,24.12
2018-04-17T09:53:39.276Z,27.69
2018-04-17T09:59:30.129Z,30.04
2018-04-17T10:05:21.006Z,29.39
2018-04-17T10:11:11.900Z,32.74
2018-04-17T10:17:02.778Z,27.67
2018-04-17T10:22:53.777Z,24.16
2018-04-17T10:28:44.638Z,32.34
2018-04-17T10:34:35.508Z,35.33
2018-04-17T10:40:26.370Z,32.37
2018-04-17T10:46:17.300Z,31.23
2018-04-17T10:52:08.231Z,27.33
2018-04-17T10:57:59.088Z,25.02
2018-04-17T11:03:50.022Z,24.32
2018-04-17T11:09:40.781Z,26.34
2018-04-17T11:15:31.799Z,24.35
2018-04-17T11:21:22.545Z,18.32
2018-04-17T11:27:13.368Z,18.42
2018-04-17T11:33:04.199Z,16.17
2018-04-17T11:38:55.036Z,17.37
2018-04-17T11:44:45.854Z,15.54
2018-04-17T11:50:36.746Z,22.13
2018-04-17T11:56:27.543Z,16.7
2018-04-17T12:02:18.398Z,13.44
2018-04-17T12:08:09.208Z,20.12
2018-04-17T12:14:00.059Z,19.65
2018-04-17T12:19:50.865Z,14.53
2018-04-17T12:25:41.749Z,10.95
2018-04-17T12:31:32.514Z,15.5
2018-04-17T12:37:23.392Z,11.19
2018-04-17T12:43:14.290Z,9.79
2018-04-17T12:49:05.083Z,18.2
2018-04-17T12:54:55.917Z,17.1
2018-04-17T13:00:46.809Z,10.3
2018-04-17T13:06:37.679Z,7.29
2018-04-17T13:12:28.486Z,11.17
2018-04-17T13:18:19.386Z,9.63
2018-04-17T13:24:10.221Z,5.01
2018-04-17T13:30:01.127Z,15.88
2018-04-17T13:35:51.985Z,8.74
2018-04-17T13:41:42.812Z,9.68
2018-04-17T13:47:33.646Z,14.51
2018-04-17T13:53:24.499Z,9.01
2018-04-17T13:59:15.350Z,10.73
2018-04-17T14:05:06.271Z,12.79
2018-04-17T14:10:57.085Z,9.87
2018-04-17T14:16:47.928Z,12.5
2018-04-17T14:22:38.780Z,12.82
2018-04-17T14:28:29.624Z,8.64
2018-04-17T14:34:20.443Z,8.68
2018-04-17T14:40:11.328Z,12.81
2018-04-17T14:46:02.108Z,9.22
2018-04-17T14:51:52.953Z,14.42
2018-04-17T14:57:43.785Z,15.43
2018-04-17T15:03:34.600Z,13.96
2018-04-17T15:09:25.432Z,13.77
2018-04-17T15:15:16.318Z,13.37
2018-04-17T15:21:07.076Z,7.25
2018-04-17T15:26:57.929Z,14.68
2018-04-17T15:32:48.738Z,4.31
2018-04-17T15:38:39.593Z,12.03
2018-04-17T15:44:30.475Z,12.06
2018-04-17T15:50:21.309Z,8.89
2018-04-17T15:56:12.131Z,13.4
2018-04-17T16:02:02.930Z,12.76
2018-04-17T16:07:53.769Z,6.73
2018-04-17T16:13:44.707Z,13.49
2018-04-17T16:19:35.626Z,8.34
2018-04-17T16:25:26.528Z,10.26
2018-04-17T16:31:17.457Z,11.45
2018-04-17T16:37:08.349Z,4.87
2018-04-17T16:42:59.275Z,9.43
2018-04-17T16:48:50.172Z,26.76
2018-04-17T16:54:41.088Z,14.85
2018-04-17T17:00:31.970Z,16.66
2018-04-17T17:06:22.831Z,21.44
2018-04-17T17:12:13.752Z,14.21
2018-04-17T17:18:04.667Z,12.17
2018-04-17T17:23:55.505Z,15.14
2018-04-17T17:29:46.415Z,15.62
2018-04-17T17:35:37.367Z,19.82
2018-04-17T17:41:28.164Z,25.61
2018-04-17T17:47:19.081Z,19.63
2018-04-17T17:53:09.980Z,20.74
2018-04-17T17:59:00.858Z,20.79
2018-04-17T18:04:51.747Z,20.45
2018-04-17T18:10:42.674Z,22.5
2018-04-17T18:16:33.545Z,19.82
2018-04-17T18:22:24.430Z,27.24
2018-04-17T18:28:15.272Z,15.49
2018-04-17T18:34:06.177Z,17.35
2018-04-17T18:39:57.051Z,14.42
2018-04-17T18:45:47.894Z,13.3
2018-04-17T18:51:38.796Z,10.57
2018-04-17T18:57:29.702Z,21.71
2018-04-17T19:03:20.496Z,22.42
2018-04-17T19:09:11.424Z,20.08
2018-04-17T19:15:02.345Z,22.19
2018-04-17T19:20:53.155Z,10.25
2018-04-17T19:26:43.968Z,18.51
2018-04-17T19:32:34.871Z,10.7
2018-04-17T19:38:25.947Z,14.68
2018-04-17T19:44:16.669Z,14.43
2018-04-17T19:50:07.465Z,12.29
2018-04-17T19:55:58.333Z,12.7
2018-04-17T20:01:49.249Z,12.52
2018-04-17T20:07:40.094Z,10.83
2018-04-17T20:13:30.941Z,9.5
2018-04-17T20:19:21.811Z,15.12
2018-04-17T20:25:12.661Z,16.13
2018-04-17T20:31:03.547Z,9.58
2018-04-17T20:36:54.372Z,10.94
2018-04-17T20:42:45.227Z,10.39
2018-04-17T20:48:36.127Z,11.16
2018-04-17T20:54:26.978Z,10.14
2018-04-17T21:00:17.818Z,8.64
2018-04-17T21:06:08.658Z,17.6
2018-04-17T21:11:59.536Z,14.28
2018-04-17T21:17:50.375Z,9.13
2018-04-17T21:23:41.258Z,10.03
2018-04-17T21:29:32.127Z,12.36
2018-04-17T21:35:22.917Z,9.47
2018-04-17T21:41:13.895Z,13.55
2018-04-17T21:47:04.613Z,14.41
2018-04-17T21:52:55.471Z,9.59
2018-04-17T21:58:46.322Z,9.43
2018-04-17T22:04:41.803Z,15.68
2018-04-17T22:10:28.034Z,16.98
2018-04-17T22:16:18.872Z,15.7
2018-04-17T22:22:09.799Z,12.67
2018-04-17T22:28:00.576Z,9.42
2018-04-17T22:33:51.414Z,10.96
2018-04-17T22:39:42.216Z,18.15
2018-04-17T22:45:33.323Z,14.18
2018-04-17T22:51:23.906Z,11.98
2018-04-17T22:57:14.716Z,15.08
2018-04-17T23:03:05.546Z,9.18
2018-04-17T23:08:56.444Z,13.66
2018-04-17T23:14:47.211Z,12.54
2018-04-17T23:20:38.053Z,11.46
2018-04-17T23:26:28.895Z,10.69
2018-04-17T23:32:19.682Z,12.29
2018-04-17T23:38:10.557Z,7.84
2018-04-17T23:44:01.356Z,13.36
2018-04-17T23:49:52.243Z,10.01
2018-04-17T23:55:43.037Z,14.23
